Time;durP1;ratioP1;P1;durP2;ratioP2;P2;SDS_P1;SDS_P2;PMS_P1;PMS_P2;Temp;Humidity;BMP_temperature;BMP_pressure;BME280_temperature;BME280_humidity;BME280_pressure;Samples;Min_cycle;Max_cycle;Signal;HPM_P1;HPM_P2
2023/09/10 00:01:08;;;;;;;6.22;5.63;;;;;;;;;;6214421;23;20019;-85
2023/09/10 00:03:34;;;;;;;5.22;4.82;;;;;;;;;;6243068;23;20322;-85
2023/09/10 00:06:00;;;;;;;5.32;4.85;;;;;;;;;;6242477;23;20012;-86
2023/09/10 00:08:27;;;;;;;5.80;5.13;;;;;;;;;;6215509;23;20012;-85
2023/09/10 00:10:53;;;;;;;6.43;5.82;;;;;;;;;;6215283;23;20756;-85
2023/09/10 00:13:19;;;;;;;7.20;6.50;;;;;;;;;;6190083;23;20044;-86
2023/09/10 00:15:45;;;;;;;7.07;6.38;;;;;;;;;;6242894;23;20046;-86
2023/09/10 00:18:11;;;;;;;6.35;5.75;;;;;;;;;;6214478;23;20429;-85
2023/09/10 00:20:38;;;;;;;6.60;5.93;;;;;;;;;;6215521;23;20090;-85
2023/09/10 00:23:04;;;;;;;7.78;7.05;;;;;;;;;;6241906;23;20018;-86
2023/09/10 00:25:30;;;;;;;8.27;7.47;;;;;;;;;;6214647;23;20012;-86
2023/09/10 00:27:57;;;;;;;7.80;7.10;;;;;;;;;;6215087;23;20027;-85
2023/09/10 00:30:23;;;;;;;8.05;7.15;;;;;;;;;;6215595;23;20012;-85
2023/09/10 00:32:49;;;;;;;7.53;6.82;;;;;;;;;;6242330;23;20008;-85
2023/09/10 00:35:16;;;;;;;7.88;7.18;;;;;;;;;;6214715;23;20016;-85
2023/09/10 00:37:42;;;;;;;7.47;6.80;;;;;;;;;;6215415;23;20020;-85
2023/09/10 00:40:08;;;;;;;8.27;7.28;;;;;;;;;;6213220;23;20093;-85
2023/09/10 00:42:34;;;;;;;7.30;6.70;;;;;;;;;;6216252;23;20031;-85
2023/09/10 00:45:00;;;;;;;7.30;6.60;;;;;;;;;;6241557;23;20334;-85
2023/09/10 00:47:27;;;;;;;8.35;7.55;;;;;;;;;;6242068;23;20045;-86
2023/09/10 00:49:54;;;;;;;7.75;7.00;;;;;;;;;;6242501;23;20012;-86
2023/09/10 00:52:21;;;;;;;8.15;7.35;;;;;;;;;;6215826;23;20079;-86
2023/09/10 00:54:48;;;;;;;9.30;8.35;;;;;;;;;;6214850;23;20020;-86
2023/09/10 00:57:14;;;;;;;9.10;8.18;;;;;;;;;;6215157;23;20031;-85
2023/09/10 00:59:41;;;;;;;8.52;6.97;;;;;;;;;;6216033;23;20091;-86
2023/09/10 01:02:08;;;;;;;8.23;7.43;;;;;;;;;;6215215;23;20517;-85
2023/09/10 01:04:34;;;;;;;7.93;7.13;;;;;;;;;;6215528;23;20083;-86
2023/09/10 01:07:02;;;;;;;7.63;6.32;;;;;;;;;;6215382;23;20020;-86
2023/09/10 01:09:28;;;;;;;7.60;6.90;;;;;;;;;;6241632;23;20016;-85
2023/09/10 01:12:13;;;;;;;8.43;7.50;;;;;;;;;;6242231;23;20012;-86
2023/09/10 01:14:59;;;;;;;7.80;7.03;;;;;;;;;;6215710;23;20012;-86
2023/09/10 01:17:40;;;;;;;8.70;7.80;;;;;;;;;;6242456;23;20020;-86
2023/09/10 01:20:24;;;;;;;8.23;7.43;;;;;;;;;;6241739;23;20024;-86
2023/09/10 01:23:07;;;;;;;8.77;7.82;;;;;;;;;;6216292;23;20134;-85
2023/09/10 01:25:34;;;;;;;8.88;7.78;;;;;;;;;;6244666;23;20023;-86
2023/09/10 01:28:03;;;;;;;10.35;8.90;;;;;;;;;;6217331;23;20078;-86
2023/09/10 01:30:29;;;;;;;9.90;8.18;;;;;;;;;;6219670;23;20034;-85
2023/09/10 01:32:58;;;;;;;10.23;9.23;;;;;;;;;;6216610;23;20341;-85
2023/09/10 01:35:36;;;;;;;10.30;9.05;;;;;;;;;;6216771;23;20048;-86
2023/09/10 01:38:17;;;;;;;10.13;8.25;;;;;;;;;;6215697;23;20349;-86
2023/09/10 01:40:51;;;;;;;9.80;8.80;;;;;;;;;;6242537;23;20086;-85
2023/09/10 01:43:18;;;;;;;8.95;8.05;;;;;;;;;;6214461;23;20071;-86
2023/09/10 01:45:45;;;;;;;7.57;6.90;;;;;;;;;;6242425;23;20066;-86
2023/09/10 01:48:11;;;;;;;7.88;7.10;;;;;;;;;;6213629;23;20020;-85
2023/09/10 01:50:37;;;;;;;7.43;6.63;;;;;;;;;;6214583;23;20122;-86
2023/09/10 01:53:03;;;;;;;7.88;7.13;;;;;;;;;;6214184;23;20066;-86
2023/09/10 01:55:29;;;;;;;8.27;7.47;;;;;;;;;;6214051;23;20587;-86
2023/09/10 01:57:55;;;;;;;7.70;6.90;;;;;;;;;;6241253;23;20580;-86
2023/09/10 02:00:22;;;;;;;7.78;6.97;;;;;;;;;;6214791;23;20016;-86
2023/09/10 02:02:48;;;;;;;8.77;7.35;;;;;;;;;;6242363;23;20048;-86
2023/09/10 02:05:14;;;;;;;7.70;7.03;;;;;;;;;;6241066;23;20087;-86
2023/09/10 02:07:40;;;;;;;8.23;7.38;;;;;;;;;;6241309;23;20055;-85
2023/09/10 02:10:06;;;;;;;7.95;7.03;;;;;;;;;;6241550;23;20058;-86
2023/09/10 02:12:34;;;;;;;8.90;7.10;;;;;;;;;;6241922;23;20008;-86
2023/09/10 02:15:00;;;;;;;7.63;6.93;;;;;;;;;;6188935;23;20008;-85
2023/09/10 02:17:26;;;;;;;7.93;7.13;;;;;;;;;;6241503;23;20068;-86
2023/09/10 02:19:52;;;;;;;7.03;6.35;;;;;;;;;;6241485;23;20016;-86
2023/09/10 02:22:18;;;;;;;7.57;6.88;;;;;;;;;;6240637;23;20016;-86
2023/09/10 02:24:49;;;;;;;7.95;7.25;;;;;;;;;;6241674;23;20016;-86
2023/09/10 02:27:15;;;;;;;8.77;7.03;;;;;;;;;;6241282;23;20027;-85
2023/09/10 02:29:41;;;;;;;8.82;8.02;;;;;;;;;;6241695;23;20333;-86
2023/09/10 02:32:08;;;;;;;7.70;6.90;;;;;;;;;;6240650;23;20019;-86
2023/09/10 02:34:34;;;;;;;8.25;7.45;;;;;;;;;;6214390;23;20087;-85
2023/09/10 02:37:02;;;;;;;7.63;6.85;;;;;;;;;;6240476;23;20047;-87
2023/09/10 02:39:28;;;;;;;7.53;6.47;;;;;;;;;;6214113;23;20020;-86
2023/09/10 02:41:54;;;;;;;7.05;6.40;;;;;;;;;;6213830;23;20030;-86
2023/09/10 02:44:20;;;;;;;7.32;6.25;;;;;;;;;;6241194;23;20012;-86
2023/09/10 02:46:46;;;;;;;7.38;6.68;;;;;;;;;;6214427;23;20023;-86
2023/09/10 02:49:12;;;;;;;7.63;6.38;;;;;;;;;;6240408;23;20018;-86
2023/09/10 02:51:38;;;;;;;8.32;7.05;;;;;;;;;;6241116;23;20047;-86
2023/09/10 02:54:04;;;;;;;8.25;7.05;;;;;;;;;;6214101;23;20015;-86
2023/09/10 02:56:30;;;;;;;9.07;8.18;;;;;;;;;;6208557;23;20135;-89
2023/09/10 02:58:56;;;;;;;8.45;7.57;;;;;;;;;;6208685;23;20431;-86
2023/09/10 03:01:22;;;;;;;8.98;7.90;;;;;;;;;;6210517;23;20096;-86
2023/09/10 03:03:50;;;;;;;10.77;9.52;;;;;;;;;;6211572;23;20044;-86
2023/09/10 03:06:16;;;;;;;10.25;8.23;;;;;;;;;;6210993;23;20028;-86
2023/09/10 03:08:44;;;;;;;11.52;8.82;;;;;;;;;;6211311;23;20020;-86
2023/09/10 03:11:10;;;;;;;11.00;9.20;;;;;;;;;;6209702;23;20012;-86
2023/09/10 03:13:36;;;;;;;10.38;8.55;;;;;;;;;;6211083;23;20338;-86
2023/09/10 03:16:02;;;;;;;12.10;10.00;;;;;;;;;;6208539;23;20055;-86
2023/09/10 03:18:28;;;;;;;12.82;9.23;;;;;;;;;;6210375;23;20445;-86
2023/09/10 03:20:54;;;;;;;14.38;10.65;;;;;;;;;;6208058;23;20021;-86
2023/09/10 03:23:20;;;;;;;13.88;10.55;;;;;;;;;;6210221;23;20048;-86
2023/09/10 03:25:47;;;;;;;11.73;9.60;;;;;;;;;;6210333;23;20047;-86
2023/09/10 03:28:13;;;;;;;12.85;10.30;;;;;;;;;;6210011;23;20059;-86
2023/09/10 03:30:39;;;;;;;13.88;10.32;;;;;;;;;;6210918;23;20013;-86
2023/09/10 03:33:05;;;;;;;15.10;11.40;;;;;;;;;;6208516;23;20319;-86
2023/09/10 03:35:31;;;;;;;12.95;11.07;;;;;;;;;;6208221;23;20102;-86
2023/09/10 03:37:57;;;;;;;16.77;11.73;;;;;;;;;;6208360;23;20035;-86
2023/09/10 03:40:23;;;;;;;13.77;10.57;;;;;;;;;;6208896;23;20012;-86
2023/09/10 03:42:49;;;;;;;13.20;11.20;;;;;;;;;;6211154;23;20016;-86
2023/09/10 03:45:16;;;;;;;10.88;9.18;;;;;;;;;;6208242;23;20017;-86
2023/09/10 03:47:42;;;;;;;13.63;10.02;;;;;;;;;;6212540;23;20311;-85
2023/09/10 03:50:10;;;;;;;12.45;9.85;;;;;;;;;;6208111;23;20013;-86
2023/09/10 03:52:36;;;;;;;12.18;9.20;;;;;;;;;;6211059;23;20016;-86
2023/09/10 03:55:02;;;;;;;11.43;8.88;;;;;;;;;;6210093;23;20449;-86
2023/09/10 03:57:28;;;;;;;13.93;9.93;;;;;;;;;;6209648;23;20021;-87
2023/09/10 03:59:54;;;;;;;12.07;9.85;;;;;;;;;;6183209;23;20088;-86
2023/09/10 04:02:20;;;;;;;11.45;9.43;;;;;;;;;;6209717;23;20390;-86
2023/09/10 04:04:46;;;;;;;14.77;10.35;;;;;;;;;;6208308;23;20067;-86
2023/09/10 04:07:12;;;;;;;10.70;9.43;;;;;;;;;;6209643;23;20017;-86
2023/09/10 04:09:38;;;;;;;13.70;10.40;;;;;;;;;;6184149;23;20047;-86
2023/09/10 04:12:04;;;;;;;15.25;11.60;;;;;;;;;;6207900;23;20009;-86
2023/09/10 04:14:31;;;;;;;13.50;11.38;;;;;;;;;;6210405;23;20023;-86
2023/09/10 04:16:57;;;;;;;12.75;10.70;;;;;;;;;;6209709;23;20017;-86
2023/09/10 04:19:23;;;;;;;14.70;10.75;;;;;;;;;;6212323;23;20012;-86
2023/09/10 04:21:49;;;;;;;14.57;11.23;;;;;;;;;;6213050;23;20012;-86
2023/09/10 04:24:15;;;;;;;14.02;11.30;;;;;;;;;;6212071;23;20091;-85
2023/09/10 04:26:42;;;;;;;13.70;11.25;;;;;;;;;;6211824;23;20123;-86
2023/09/10 04:29:08;;;;;;;15.68;10.98;;;;;;;;;;6211651;23;20020;-86
2023/09/10 04:31:43;;;;;;;13.77;11.00;;;;;;;;;;6212510;23;20067;-86
2023/09/10 04:34:09;;;;;;;12.23;9.73;;;;;;;;;;6184528;23;20017;-86
2023/09/10 04:36:35;;;;;;;12.43;10.13;;;;;;;;;;6210563;23;20016;-86
2023/09/10 04:39:07;;;;;;;12.82;9.75;;;;;;;;;;6209983;23;20044;-86
2023/09/10 04:41:34;;;;;;;14.45;9.93;;;;;;;;;;6211881;23;20017;-86
2023/09/10 04:44:00;;;;;;;13.18;10.68;;;;;;;;;;6211687;23;20012;-85
2023/09/10 04:46:27;;;;;;;12.48;10.15;;;;;;;;;;6208881;23;20021;-86
2023/09/10 04:48:53;;;;;;;13.05;9.80;;;;;;;;;;6212087;23;20036;-86
2023/09/10 04:51:19;;;;;;;12.80;9.15;;;;;;;;;;6212281;23;20381;-86
2023/09/10 04:53:45;;;;;;;11.88;10.50;;;;;;;;;;6210421;23;20044;-86
2023/09/10 04:56:11;;;;;;;12.02;9.38;;;;;;;;;;6218798;23;20422;-86
2023/09/10 04:58:37;;;;;;;13.38;10.02;;;;;;;;;;6242332;23;20338;-86
2023/09/10 05:01:03;;;;;;;14.88;9.82;;;;;;;;;;6241248;23;20012;-86
2023/09/10 05:03:29;;;;;;;11.80;9.63;;;;;;;;;;6215383;23;20035;-86
2023/09/10 05:05:59;;;;;;;11.55;8.63;;;;;;;;;;6241478;23;20016;-85
2023/09/10 05:08:25;;;;;;;10.75;8.75;;;;;;;;;;6241893;23;20019;-85
2023/09/10 05:10:51;;;;;;;11.18;8.63;;;;;;;;;;6242640;23;20091;-85
2023/09/10 05:13:17;;;;;;;12.50;9.32;;;;;;;;;;6214053;23;20016;-86
2023/09/10 05:15:48;;;;;;;15.75;11.10;;;;;;;;;;6241675;23;20014;-85
2023/09/10 05:18:14;;;;;;;13.85;10.90;;;;;;;;;;6240674;23;20047;-87
2023/09/10 05:20:40;;;;;;;12.70;10.50;;;;;;;;;;6213387;23;20070;-86
2023/09/10 05:23:06;;;;;;;16.15;10.95;;;;;;;;;;6214624;23;20019;-86
2023/09/10 05:25:36;;;;;;;17.05;12.30;;;;;;;;;;6241992;23;20079;-87
2023/09/10 05:28:03;;;;;;;16.58;11.55;;;;;;;;;;6215007;23;20061;-86
2023/09/10 05:30:29;;;;;;;15.73;11.30;;;;;;;;;;6214288;23;20043;-85
2023/09/10 05:32:56;;;;;;;16.90;11.68;;;;;;;;;;6241149;23;20338;-85
2023/09/10 05:35:22;;;;;;;15.35;10.18;;;;;;;;;;6214148;23;20066;-84
2023/09/10 05:37:48;;;;;;;13.82;9.57;;;;;;;;;;6214691;23;20373;-87
2023/09/10 05:40:14;;;;;;;15.40;10.88;;;;;;;;;;6214414;23;20046;-85
2023/09/10 05:42:40;;;;;;;13.20;9.93;;;;;;;;;;6242333;23;20038;-85
2023/09/10 05:45:06;;;;;;;13.98;10.45;;;;;;;;;;6241059;23;20012;-86
2023/09/10 05:47:32;;;;;;;12.57;10.02;;;;;;;;;;6240831;23;20130;-85
2023/09/10 05:50:00;;;;;;;13.25;9.35;;;;;;;;;;6241076;23;20051;-86
2023/09/10 05:52:26;;;;;;;11.18;9.85;;;;;;;;;;6241517;23;20047;-85
2023/09/10 05:54:52;;;;;;;15.43;10.10;;;;;;;;;;6214623;23;20066;-86
2023/09/10 05:57:18;;;;;;;14.48;9.35;;;;;;;;;;6240152;23;20058;-85
2023/09/10 05:59:44;;;;;;;15.38;9.32;;;;;;;;;;6241244;23;20050;-86
2023/09/10 06:02:10;;;;;;;13.43;8.50;;;;;;;;;;6214125;23;20023;-87
2023/09/10 06:04:36;;;;;;;15.27;8.68;;;;;;;;;;6241270;23;20342;-86
2023/09/10 06:07:05;;;;;;;11.82;8.80;;;;;;;;;;6213064;23;20039;-84
2023/09/10 06:09:32;;;;;;;12.40;9.68;;;;;;;;;;6241374;23;20119;-85
2023/09/10 06:11:58;;;;;;;12.82;9.80;;;;;;;;;;6241479;23;20048;-84
2023/09/10 06:14:24;;;;;;;10.95;8.70;;;;;;;;;;6213387;23;20020;-85
2023/09/10 06:16:50;;;;;;;13.85;10.52;;;;;;;;;;6241279;23;20077;-85
2023/09/10 06:19:16;;;;;;;13.32;10.13;;;;;;;;;;6213914;23;20424;-84
2023/09/10 06:21:43;;;;;;;16.08;11.77;;;;;;;;;;6241451;23;20067;-85
2023/09/10 06:24:09;;;;;;;14.20;10.88;;;;;;;;;;6213519;23;20320;-84
2023/09/10 06:26:35;;;;;;;18.58;12.55;;;;;;;;;;6214067;23;20043;-85
2023/09/10 06:29:01;;;;;;;18.73;12.68;;;;;;;;;;6213549;23;20027;-85
2023/09/10 06:31:27;;;;;;;18.05;12.38;;;;;;;;;;6241310;23;20012;-85
2023/09/10 06:33:56;;;;;;;18.17;13.35;;;;;;;;;;6241063;23;20515;-84
2023/09/10 06:36:22;;;;;;;16.92;11.55;;;;;;;;;;6240697;23;20012;-84
2023/09/10 06:38:48;;;;;;;17.83;12.60;;;;;;;;;;6241271;23;20008;-85
2023/09/10 06:41:15;;;;;;;18.23;12.20;;;;;;;;;;6212820;23;20023;-84
2023/09/10 06:43:41;;;;;;;16.48;12.63;;;;;;;;;;6239684;23;20020;-85
2023/09/10 06:46:07;;;;;;;17.90;13.30;;;;;;;;;;6213486;23;20446;-87
2023/09/10 06:48:33;;;;;;;15.93;12.60;;;;;;;;;;6242172;23;20099;-86
2023/09/10 06:51:00;;;;;;;16.27;11.88;;;;;;;;;;6240897;23;20039;-85
2023/09/10 06:53:30;;;;;;;16.70;12.52;;;;;;;;;;6238982;23;20044;-86
2023/09/10 06:55:57;;;;;;;17.73;13.10;;;;;;;;;;6212376;23;20349;-86
2023/09/10 06:58:23;;;;;;;18.25;12.63;;;;;;;;;;6242237;23;20070;-86
2023/09/10 07:00:49;;;;;;;18.63;13.63;;;;;;;;;;6241168;23;20507;-86
2023/09/10 07:03:15;;;;;;;18.10;12.90;;;;;;;;;;6240603;23;20554;-86
2023/09/10 07:05:42;;;;;;;20.95;14.07;;;;;;;;;;6215509;23;20024;-87
2023/09/10 07:08:10;;;;;;;21.52;15.73;;;;;;;;;;6241837;23;20012;-86
2023/09/10 07:10:37;;;;;;;26.40;15.75;;;;;;;;;;6244441;23;20008;-87
2023/09/10 07:13:05;;;;;;;25.83;17.27;;;;;;;;;;6245372;23;20009;-87
2023/09/10 07:15:31;;;;;;;24.63;17.40;;;;;;;;;;6243900;23;20384;-86
2023/09/10 07:17:57;;;;;;;28.52;19.40;;;;;;;;;;6242297;23;20016;-86
2023/09/10 07:20:23;;;;;;;27.90;19.70;;;;;;;;;;6215688;23;20023;-87
2023/09/10 07:22:49;;;;;;;27.45;18.48;;;;;;;;;;6248473;23;20267;-88
2023/09/10 07:25:15;;;;;;;25.33;18.85;;;;;;;;;;6224139;23;20070;-87
2023/09/10 07:27:41;;;;;;;30.05;21.20;;;;;;;;;;6245557;23;20062;-85
2023/09/10 07:30:07;;;;;;;29.58;19.33;;;;;;;;;;6212809;23;20426;-85
2023/09/10 07:32:34;;;;;;;26.42;18.67;;;;;;;;;;6240768;23;20346;-85
2023/09/10 07:35:00;;;;;;;25.77;19.48;;;;;;;;;;6240185;23;20019;-84
2023/09/10 07:37:26;;;;;;;24.88;18.92;;;;;;;;;;6241169;23;20012;-85
2023/09/10 07:39:52;;;;;;;26.27;18.77;;;;;;;;;;6187457;23;20023;-85
2023/09/10 07:42:17;;;;;;;24.80;18.90;;;;;;;;;;6239802;23;20430;-84
2023/09/10 07:44:43;;;;;;;25.80;18.98;;;;;;;;;;6240592;23;20048;-85
2023/09/10 07:47:09;;;;;;;24.40;18.25;;;;;;;;;;6213517;23;20501;-85
2023/09/10 07:49:36;;;;;;;23.75;17.92;;;;;;;;;;6242111;23;20158;-85
2023/09/10 07:52:04;;;;;;;24.40;17.77;;;;;;;;;;6215715;23;20012;-86
2023/09/10 07:54:30;;;;;;;22.45;17.42;;;;;;;;;;6242503;23;20062;-85
2023/09/10 07:56:56;;;;;;;22.67;17.08;;;;;;;;;;6242573;23;20016;-84
2023/09/10 07:59:22;;;;;;;22.52;16.95;;;;;;;;;;6243115;23;20035;-83
2023/09/10 08:01:48;;;;;;;22.65;16.38;;;;;;;;;;6243112;23;20039;-83
2023/09/10 08:04:14;;;;;;;22.75;16.73;;;;;;;;;;6242791;23;20020;-83
2023/09/10 08:06:40;;;;;;;21.58;15.85;;;;;;;;;;6216356;23;20019;-83
2023/09/10 08:09:06;;;;;;;20.83;15.40;;;;;;;;;;6214795;23;20338;-83
2023/09/10 08:11:33;;;;;;;21.77;16.33;;;;;;;;;;6215773;23;20016;-83
2023/09/10 08:13:59;;;;;;;19.55;15.10;;;;;;;;;;6215446;23;20346;-83
2023/09/10 08:16:25;;;;;;;17.85;15.05;;;;;;;;;;6243200;23;20065;-83
2023/09/10 08:18:51;;;;;;;19.55;14.93;;;;;;;;;;6243072;23;20012;-83
2023/09/10 08:21:17;;;;;;;16.50;14.00;;;;;;;;;;6242404;23;20342;-83
2023/09/10 08:23:44;;;;;;;19.42;14.35;;;;;;;;;;6215668;23;20054;-84
2023/09/10 08:26:11;;;;;;;16.08;13.35;;;;;;;;;;6242311;23;20016;-84
2023/09/10 08:28:37;;;;;;;20.58;14.57;;;;;;;;;;6216079;23;20134;-84
2023/09/10 08:31:04;;;;;;;18.67;13.70;;;;;;;;;;6242198;23;20070;-85
2023/09/10 08:33:30;;;;;;;20.42;15.02;;;;;;;;;;6215214;23;20051;-85
2023/09/10 08:35:56;;;;;;;16.45;13.15;;;;;;;;;;6215358;23;20012;-84
2023/09/10 08:38:22;;;;;;;17.55;13.68;;;;;;;;;;6241931;23;20016;-83
2023/09/10 08:40:54;;;;;;;18.50;13.07;;;;;;;;;;6216234;23;20078;-84
2023/09/10 08:43:22;;;;;;;17.25;13.40;;;;;;;;;;6215269;23;20027;-85
2023/09/10 08:45:49;;;;;;;19.13;13.63;;;;;;;;;;6243068;23;20023;-85
2023/09/10 08:48:18;;;;;;;16.58;13.93;;;;;;;;;;6242078;23;20392;-85
2023/09/10 08:50:46;;;;;;;17.77;13.65;;;;;;;;;;6243040;23;20083;-86
2023/09/10 08:53:13;;;;;;;17.98;13.52;;;;;;;;;;6241216;23;20113;-84
2023/09/10 08:55:40;;;;;;;14.25;11.32;;;;;;;;;;6242432;23;20009;-85
2023/09/10 08:58:09;;;;;;;15.52;11.93;;;;;;;;;;6243429;23;20383;-84
2023/09/10 09:00:35;;;;;;;14.40;11.85;;;;;;;;;;6243210;23;20380;-85
2023/09/10 09:03:02;;;;;;;18.65;11.95;;;;;;;;;;6243383;23;20150;-85
2023/09/10 09:05:30;;;;;;;14.02;11.48;;;;;;;;;;6215575;23;20027;-85
2023/09/10 09:07:57;;;;;;;14.88;11.88;;;;;;;;;;6241713;23;20087;-87
2023/09/10 09:10:27;;;;;;;17.70;12.52;;;;;;;;;;6215689;23;20012;-84
2023/09/10 09:12:56;;;;;;;15.15;11.43;;;;;;;;;;6215086;23;20337;-84
2023/09/10 09:15:22;;;;;;;15.23;11.68;;;;;;;;;;6242076;23;20012;-84
2023/09/10 09:17:49;;;;;;;13.75;11.63;;;;;;;;;;6242851;23;20016;-84
2023/09/10 09:20:17;;;;;;;14.57;10.43;;;;;;;;;;6242277;23;20016;-85
2023/09/10 09:22:45;;;;;;;14.43;12.02;;;;;;;;;;6241799;23;20012;-85
2023/09/10 09:25:12;;;;;;;12.40;10.55;;;;;;;;;;6241695;23;20020;-84
2023/09/10 09:27:38;;;;;;;13.75;11.52;;;;;;;;;;6217324;23;20016;-89
2023/09/10 09:30:06;;;;;;;16.45;12.60;;;;;;;;;;6244978;23;20008;-82
2023/09/10 09:32:37;;;;;;;15.30;10.57;;;;;;;;;;6242271;23;20019;-85
2023/09/10 09:35:03;;;;;;;16.00;11.57;;;;;;;;;;6241986;23;20047;-85
2023/09/10 09:37:33;;;;;;;13.10;10.07;;;;;;;;;;6241399;23;20016;-84
2023/09/10 09:40:03;;;;;;;13.40;10.40;;;;;;;;;;6241913;23;20016;-83
2023/09/10 09:42:29;;;;;;;11.55;10.43;;;;;;;;;;6212282;23;20020;-82
2023/09/10 09:44:57;;;;;;;13.98;10.73;;;;;;;;;;6240973;23;20012;-83
2023/09/10 09:47:23;;;;;;;16.45;13.35;;;;;;;;;;6240756;23;20463;-86
2023/09/10 09:49:50;;;;;;;15.38;12.05;;;;;;;;;;6241122;23;20337;-84
2023/09/10 09:52:17;;;;;;;17.42;12.18;;;;;;;;;;6241184;23;20071;-84
2023/09/10 09:54:43;;;;;;;15.52;10.60;;;;;;;;;;6215344;23;20016;-84
2023/09/10 09:57:11;;;;;;;12.75;10.60;;;;;;;;;;6241455;23;20052;-85
2023/09/10 09:59:37;;;;;;;11.50;9.98;;;;;;;;;;6242934;23;20020;-85
2023/09/10 10:02:03;;;;;;;13.35;10.38;;;;;;;;;;6214774;23;20018;-84
2023/09/10 10:04:32;;;;;;;13.70;11.57;;;;;;;;;;6241354;23;20070;-86
2023/09/10 10:06:58;;;;;;;11.98;9.95;;;;;;;;;;6242196;23;20344;-86
2023/09/10 10:09:33;;;;;;;13.15;11.75;;;;;;;;;;6215963;23;20008;-88
2023/09/10 10:11:59;;;;;;;13.52;11.18;;;;;;;;;;6241938;23;20012;-85
2023/09/10 10:14:26;;;;;;;13.35;10.48;;;;;;;;;;6243254;23;20337;-87
2023/09/10 10:16:52;;;;;;;13.30;10.77;;;;;;;;;;6242316;23;20019;-85
2023/09/10 10:19:20;;;;;;;12.38;9.77;;;;;;;;;;6213476;23;20025;-84
2023/09/10 10:21:47;;;;;;;11.20;10.05;;;;;;;;;;6242403;23;20048;-88
2023/09/10 10:24:15;;;;;;;11.93;10.73;;;;;;;;;;6218058;23;20035;-89
2023/09/10 10:26:43;;;;;;;14.98;10.70;;;;;;;;;;6247079;23;20150;-88
2023/09/10 10:29:10;;;;;;;15.93;11.90;;;;;;;;;;6246020;23;20020;-87
2023/09/10 10:31:37;;;;;;;14.95;11.20;;;;;;;;;;6243868;23;20016;-87
2023/09/10 10:34:08;;;;;;;10.07;9.07;;;;;;;;;;6214025;23;20040;-86
2023/09/10 10:36:53;;;;;;;10.40;9.30;;;;;;;;;;6215715;23;20016;-88
2023/09/10 10:39:23;;;;;;;10.52;9.27;;;;;;;;;;6189593;23;20016;-86
2023/09/10 10:41:53;;;;;;;10.68;9.52;;;;;;;;;;6214926;23;20017;-85
2023/09/10 10:44:30;;;;;;;9.35;8.45;;;;;;;;;;6213794;23;20015;-86
2023/09/10 10:47:13;;;;;;;10.48;8.55;;;;;;;;;;6241170;23;20073;-86
2023/09/10 10:49:44;;;;;;;9.23;7.97;;;;;;;;;;6242392;23;20094;-90
2023/09/10 10:52:11;;;;;;;11.23;8.82;;;;;;;;;;6240620;23;20012;-86
2023/09/10 10:54:37;;;;;;;10.73;8.73;;;;;;;;;;6215241;23;20019;-86
2023/09/10 10:57:06;;;;;;;10.75;9.63;;;;;;;;;;6214864;23;20024;-87
2023/09/10 10:59:32;;;;;;;10.48;9.38;;;;;;;;;;6243416;23;20012;-89
2023/09/10 11:02:13;;;;;;;8.88;7.97;;;;;;;;;;6243015;23;20083;-89
2023/09/10 11:04:53;;;;;;;10.40;9.20;;;;;;;;;;6215610;23;20020;-87
2023/09/10 11:07:19;;;;;;;11.48;8.93;;;;;;;;;;6216473;23;20016;-87
2023/09/10 11:09:46;;;;;;;11.77;8.27;;;;;;;;;;6243307;23;20016;-86
2023/09/10 11:12:13;;;;;;;10.27;8.27;;;;;;;;;;6242147;23;20019;-86
2023/09/10 11:14:58;;;;;;;10.18;8.70;;;;;;;;;;6243538;23;20012;-86
2023/09/10 11:17:25;;;;;;;13.38;8.93;;;;;;;;;;6191148;23;20020;-92
2023/09/10 11:19:51;;;;;;;10.75;8.80;;;;;;;;;;6215854;23;20123;-90
2023/09/10 11:22:17;;;;;;;10.13;8.98;;;;;;;;;;6214485;23;20393;-86
2023/09/10 11:24:43;;;;;;;9.98;7.80;;;;;;;;;;6245083;23;20015;-88
2023/09/10 11:27:22;;;;;;;9.85;6.82;;;;;;;;;;6244128;23;20074;-87
2023/09/10 11:30:03;;;;;;;8.40;7.63;;;;;;;;;;6218087;23;20016;-90
2023/09/10 11:32:29;;;;;;;12.35;7.93;;;;;;;;;;6216012;23;20319;-95
2023/09/10 11:35:15;;;;;;;14.02;8.30;;;;;;;;;;6245181;23;20027;-89
2023/09/10 11:37:42;;;;;;;10.00;8.00;;;;;;;;;;6243955;23;20380;-87
2023/09/10 11:40:08;;;;;;;11.77;8.73;;;;;;;;;;6243485;23;20460;-91
2023/09/10 11:42:37;;;;;;;9.32;7.80;;;;;;;;;;6243861;23;20016;-89
2023/09/10 11:45:04;;;;;;;10.73;7.97;;;;;;;;;;6245117;23;20062;-91
2023/09/10 11:47:30;;;;;;;8.75;7.53;;;;;;;;;;6243349;23;20042;-90
2023/09/10 11:50:05;;;;;;;10.13;7.50;;;;;;;;;;6218516;23;20095;-92
2023/09/10 11:52:31;;;;;;;10.75;7.82;;;;;;;;;;6217758;23;20098;-90
2023/09/10 11:54:57;;;;;;;9.35;7.55;;;;;;;;;;6217323;23;20471;-90
2023/09/10 11:57:24;;;;;;;8.27;7.47;;;;;;;;;;6218131;23;20054;-88
2023/09/10 11:59:50;;;;;;;11.23;8.02;;;;;;;;;;6219188;23;20012;-91
2023/09/10 12:02:17;;;;;;;12.63;8.27;;;;;;;;;;6244800;23;20016;-88
2023/09/10 12:04:43;;;;;;;10.52;7.95;;;;;;;;;;6217590;23;20087;-88
2023/09/10 12:07:09;;;;;;;9.63;8.73;;;;;;;;;;6216372;23;20020;-88
2023/09/10 12:09:35;;;;;;;10.63;7.38;;;;;;;;;;6218488;23;20069;-89
2023/09/10 12:12:06;;;;;;;9.90;8.52;;;;;;;;;;6244318;23;20330;-92
2023/09/10 12:14:32;;;;;;;9.95;7.00;;;;;;;;;;6244684;23;20012;-92
2023/09/10 12:16:58;;;;;;;9.23;7.22;;;;;;;;;;6217277;23;20402;-89
2023/09/10 12:19:24;;;;;;;9.18;7.45;;;;;;;;;;6244744;23;20373;-89
2023/09/10 12:21:51;;;;;;;11.23;8.48;;;;;;;;;;6244826;23;20050;-89
2023/09/10 12:24:17;;;;;;;13.80;9.00;;;;;;;;;;6244451;23;20058;-88
2023/09/10 12:26:46;;;;;;;9.02;7.95;;;;;;;;;;6245558;23;20154;-91
2023/09/10 12:29:12;;;;;;;9.75;8.55;;;;;;;;;;6215721;23;20763;-88
2023/09/10 12:31:38;;;;;;;10.45;7.60;;;;;;;;;;6217234;23;20015;-88
2023/09/10 12:34:04;;;;;;;13.13;7.38;;;;;;;;;;6243429;23;20087;-90
2023/09/10 12:36:30;;;;;;;10.82;7.70;;;;;;;;;;6243499;23;20019;-90
2023/09/10 12:38:56;;;;;;;10.13;6.57;;;;;;;;;;6243447;23;20050;-87
2023/09/10 12:41:22;;;;;;;11.27;7.78;;;;;;;;;;6245706;23;20012;-90
2023/09/10 12:43:49;;;;;;;9.70;6.88;;;;;;;;;;6218219;23;20433;-90
2023/09/10 12:46:15;;;;;;;10.10;7.75;;;;;;;;;;6193036;23;20012;-94
2023/09/10 12:48:42;;;;;;;12.48;7.65;;;;;;;;;;6194092;23;20446;-93
2023/09/10 12:51:08;;;;;;;9.70;7.60;;;;;;;;;;6217438;23;20064;-88
2023/09/10 12:53:35;;;;;;;12.90;7.30;;;;;;;;;;6243040;23;20136;-90
2023/09/10 12:56:02;;;;;;;11.82;7.65;;;;;;;;;;6243134;23;20099;-92
2023/09/10 12:58:28;;;;;;;8.82;7.22;;;;;;;;;;6244272;23;20030;-91
2023/09/10 13:00:56;;;;;;;8.02;6.20;;;;;;;;;;6243333;23;20012;-86
2023/09/10 13:03:21;;;;;;;10.88;7.57;;;;;;;;;;6243818;23;20008;-89
2023/09/10 13:05:48;;;;;;;7.88;7.00;;;;;;;;;;6242903;23;20405;-85
2023/09/10 13:08:14;;;;;;;11.45;6.63;;;;;;;;;;6218691;23;20031;-89
2023/09/10 13:10:40;;;;;;;11.18;6.93;;;;;;;;;;6222464;23;20004;-92
2023/09/10 13:13:07;;;;;;;12.82;6.93;;;;;;;;;;6251684;23;20055;-92
2023/09/10 13:15:33;;;;;;;11.23;7.10;;;;;;;;;;6249334;23;20012;-89
2023/09/10 13:17:59;;;;;;;9.13;6.53;;;;;;;;;;6253318;23;20080;-90
2023/09/10 13:20:26;;;;;;;11.40;6.40;;;;;;;;;;6263524;23;20039;-88
2023/09/10 13:22:52;;;;;;;12.95;6.60;;;;;;;;;;6252856;23;20016;-89
2023/09/10 13:25:18;;;;;;;7.55;6.20;;;;;;;;;;6260665;23;20024;-89
2023/09/10 13:27:44;;;;;;;10.25;6.32;;;;;;;;;;6269269;22;20024;-89
2023/09/10 13:30:13;;;;;;;11.07;6.10;;;;;;;;;;6253194;23;20020;-90
2023/09/10 13:32:39;;;;;;;8.48;6.20;;;;;;;;;;6217038;23;20481;-91
2023/09/10 13:35:06;;;;;;;10.35;5.57;;;;;;;;;;6216557;23;20012;-90
2023/09/10 13:37:32;;;;;;;12.40;6.07;;;;;;;;;;6191631;23;20392;-91
2023/09/10 13:39:58;;;;;;;11.02;5.97;;;;;;;;;;6243673;23;20038;-89
2023/09/10 13:42:24;;;;;;;16.17;6.53;;;;;;;;;;6215556;23;20048;-87
2023/09/10 13:44:50;;;;;;;9.35;6.25;;;;;;;;;;6242805;23;20048;-88
2023/09/10 13:47:16;;;;;;;9.38;6.30;;;;;;;;;;6215380;23;20556;-88
2023/09/10 13:49:42;;;;;;;11.45;6.85;;;;;;;;;;6242411;23;20068;-90
2023/09/10 13:52:11;;;;;;;12.90;6.47;;;;;;;;;;6213804;23;20016;-87
2023/09/10 13:54:37;;;;;;;8.73;6.07;;;;;;;;;;6246849;23;20012;-90
2023/09/10 13:57:03;;;;;;;12.13;6.07;;;;;;;;;;6217448;23;20085;-91
2023/09/10 13:59:29;;;;;;;11.68;7.38;;;;;;;;;;6243833;23;20066;-90
2023/09/10 14:01:56;;;;;;;9.95;6.00;;;;;;;;;;6215258;23;20091;-88
2023/09/10 14:04:24;;;;;;;10.00;6.30;;;;;;;;;;6215748;23;20443;-88
2023/09/10 14:06:50;;;;;;;9.45;6.13;;;;;;;;;;6215257;23;20023;-88
2023/09/10 14:09:16;;;;;;;18.35;6.40;;;;;;;;;;6215860;23;20039;-90
2023/09/10 14:11:42;;;;;;;10.20;5.78;;;;;;;;;;6242554;23;20062;-89
2023/09/10 14:14:08;;;;;;;12.77;6.15;;;;;;;;;;6215558;23;20016;-89
2023/09/10 14:16:34;;;;;;;10.18;5.30;;;;;;;;;;6217918;23;20043;-88
2023/09/10 14:19:00;;;;;;;12.13;6.05;;;;;;;;;;6243111;23;20016;-88
2023/09/10 14:21:26;;;;;;;10.32;5.75;;;;;;;;;;6243351;23;20074;-89
2023/09/10 14:23:52;;;;;;;13.48;5.60;;;;;;;;;;6242992;23;20008;-90
2023/09/10 14:26:18;;;;;;;10.45;5.90;;;;;;;;;;6242149;23;20091;-88
2023/09/10 14:28:44;;;;;;;13.02;6.15;;;;;;;;;;6242682;23;20418;-91